createdAt,value
2023-04-26T00:02:04.652Z,7.53
2023-04-26T00:04:56.267Z,7.44
2023-04-26T00:07:45.135Z,7.51
2023-04-26T00:10:33.636Z,7.47
2023-04-26T00:13:22.069Z,7.42
2023-04-26T00:16:11.969Z,7.11
2023-04-26T00:19:01.202Z,7.30
2023-04-26T00:21:49.660Z,7.32
2023-04-26T00:24:38.185Z,7.19
2023-04-26T00:27:26.819Z,7.13
2023-04-26T00:30:16.099Z,7.07
2023-04-26T00:33:06.336Z,7.08
2023-04-26T00:35:54.798Z,7.01
2023-04-26T00:38:43.352Z,7.04
2023-04-26T00:41:32.472Z,6.98
2023-04-26T00:44:20.873Z,6.92
2023-04-26T00:47:09.572Z,6.91
2023-04-26T00:49:59.389Z,6.65
2023-04-26T00:52:48.483Z,6.78
2023-04-26T00:55:37.215Z,6.76
2023-04-26T00:58:26.475Z,6.74
2023-04-26T01:01:15.027Z,6.72
2023-04-26T01:04:03.836Z,6.73
2023-04-26T01:06:53.836Z,6.67
2023-04-26T01:09:43.044Z,6.64
2023-04-26T01:12:31.502Z,6.57
2023-04-26T01:15:20.027Z,6.47
2023-04-26T01:18:08.514Z,6.39
2023-04-26T01:20:57.665Z,6.39
2023-04-26T01:23:47.497Z,6.37
2023-04-26T01:26:36.298Z,6.29
2023-04-26T01:29:25.036Z,6.33
2023-04-26T01:32:13.554Z,6.35
2023-04-26T01:35:02.164Z,6.33
2023-04-26T01:37:50.611Z,6.33
2023-04-26T01:40:43.643Z,6.34
2023-04-26T01:43:32.254Z,6.42
2023-04-26T01:46:20.879Z,6.47
2023-04-26T01:49:09.407Z,6.49
2023-04-26T01:51:57.919Z,6.54
2023-04-26T01:54:46.398Z,6.58
2023-04-26T01:57:36.300Z,6.61
2023-04-26T02:00:24.772Z,6.52
2023-04-26T02:03:13.377Z,6.58
2023-04-26T02:06:01.871Z,6.57
2023-04-26T02:08:50.468Z,6.58
2023-04-26T02:11:38.956Z,6.60
2023-04-26T02:14:28.795Z,6.58
2023-04-26T02:17:17.328Z,6.67
2023-04-26T02:20:07.221Z,6.67
2023-04-26T02:22:55.668Z,6.68
2023-04-26T02:25:46.863Z,6.68
2023-04-26T02:28:35.372Z,6.64
2023-04-26T02:31:25.346Z,6.64
2023-04-26T02:34:13.892Z,5.98
2023-04-26T02:37:02.577Z,6.51
2023-04-26T02:39:51.314Z,6.48
2023-04-26T02:42:40.063Z,6.50
2023-04-26T02:45:28.554Z,6.49
2023-04-26T02:48:18.364Z,6.49
2023-04-26T02:51:07.405Z,6.44
2023-04-26T02:53:55.892Z,6.45
2023-04-26T02:56:44.310Z,6.43
2023-04-26T02:59:32.810Z,6.42
2023-04-26T03:02:21.649Z,6.42
2023-04-26T03:05:11.648Z,6.38
2023-04-26T03:08:00.166Z,6.40
2023-04-26T03:10:48.629Z,6.42
2023-04-26T03:13:37.469Z,6.46
2023-04-26T03:16:26.010Z,6.49
2023-04-26T03:19:14.638Z,6.45
2023-04-26T03:22:04.487Z,6.44
2023-04-26T03:24:52.940Z,6.22
2023-04-26T03:27:41.388Z,6.26
2023-04-26T03:30:29.909Z,6.35
2023-04-26T03:33:18.415Z,6.26
2023-04-26T03:36:07.428Z,6.06
2023-04-26T03:38:57.250Z,5.80
2023-04-26T03:41:46.082Z,5.72
2023-04-26T03:44:34.554Z,5.69
2023-04-26T03:47:23.068Z,5.76
2023-04-26T03:50:12.106Z,5.67
2023-04-26T03:53:00.548Z,5.64
2023-04-26T03:55:50.641Z,5.52
2023-04-26T03:58:39.159Z,5.48
2023-04-26T04:01:27.716Z,5.50
2023-04-26T04:04:16.572Z,5.33
2023-04-26T04:07:05.774Z,5.35
2023-04-26T04:09:54.238Z,5.25
2023-04-26T04:12:44.088Z,5.37
2023-04-26T04:15:32.695Z,5.33
2023-04-26T04:18:21.236Z,5.27
2023-04-26T04:21:09.759Z,5.38
2023-04-26T04:23:58.281Z,5.42
2023-04-26T04:26:47.246Z,5.45
2023-04-26T04:29:37.130Z,5.13
2023-04-26T04:32:25.762Z,5.43
2023-04-26T04:35:14.450Z,4.87
2023-04-26T04:38:03.112Z,5.45
2023-04-26T04:40:52.238Z,5.41
2023-04-26T04:43:40.757Z,5.43
2023-04-26T04:46:30.760Z,5.58
2023-04-26T04:49:19.689Z,5.52
2023-04-26T04:52:08.209Z,5.60
2023-04-26T04:54:56.691Z,5.49
2023-04-26T04:57:45.216Z,5.47
2023-04-26T05:00:33.972Z,4.79
2023-04-26T05:03:23.993Z,5.36
2023-04-26T05:06:12.544Z,5.42
2023-04-26T05:09:01.469Z,5.37
2023-04-26T05:11:49.998Z,5.32
2023-04-26T05:14:38.483Z,5.43
2023-04-26T05:17:26.960Z,5.41
2023-04-26T05:20:16.934Z,5.46
2023-04-26T05:23:05.566Z,5.46
2023-04-26T05:25:53.991Z,5.43
2023-04-26T05:28:42.528Z,5.36
2023-04-26T05:31:31.487Z,5.36
2023-04-26T05:34:20.063Z,5.49
2023-04-26T05:37:09.865Z,5.43
2023-04-26T05:39:58.524Z,5.36
2023-04-26T05:42:47.179Z,5.49
2023-04-26T05:45:35.769Z,5.49
2023-04-26T05:48:25.516Z,4.71
2023-04-26T05:51:14.036Z,5.55
2023-04-26T05:54:05.146Z,5.41
2023-04-26T05:56:53.644Z,5.47
2023-04-26T05:59:42.104Z,5.51
2023-04-26T06:02:30.730Z,5.56
2023-04-26T06:05:19.732Z,5.68
2023-04-26T06:08:08.697Z,5.65
2023-04-26T06:10:58.523Z,5.56
2023-04-26T06:13:47.314Z,5.80
2023-04-26T06:16:35.969Z,5.98
2023-04-26T06:19:24.573Z,6.15
2023-04-26T06:22:13.072Z,6.42
2023-04-26T06:25:01.754Z,6.25
2023-04-26T06:27:51.963Z,6.72
2023-04-26T06:30:40.507Z,6.81
2023-04-26T06:33:29.267Z,6.85
2023-04-26T06:36:17.740Z,7.10
2023-04-26T06:39:06.289Z,7.32
2023-04-26T06:41:54.777Z,7.53
2023-04-26T06:44:44.657Z,7.85
2023-04-26T06:47:33.159Z,7.87
2023-04-26T06:50:21.904Z,8.35
2023-04-26T06:53:10.445Z,8.40
2023-04-26T06:55:58.924Z,8.43
2023-04-26T06:59:00.421Z,8.63
2023-04-26T07:01:50.406Z,8.92
2023-04-26T07:04:39.223Z,9.04
2023-04-26T07:07:27.846Z,9.40
2023-04-26T07:10:16.321Z,9.67
2023-04-26T07:13:05.523Z,9.50
2023-04-26T07:15:55.258Z,9.62
2023-04-26T07:18:45.297Z,10.04
2023-04-26T07:21:33.959Z,10.25
2023-04-26T07:24:22.468Z,10.31
2023-04-26T07:27:11.137Z,10.49
2023-04-26T07:29:59.669Z,10.68
2023-04-26T07:32:48.213Z,11.01
2023-04-26T07:35:38.110Z,11.24
2023-04-26T07:38:26.768Z,11.57
2023-04-26T07:41:16.417Z,11.92
2023-04-26T07:44:05.332Z,12.05
2023-04-26T07:46:53.969Z,12.20
2023-04-26T07:49:42.686Z,12.36
2023-04-26T07:52:32.628Z,12.21
2023-04-26T07:55:21.710Z,12.25
2023-04-26T07:58:14.450Z,12.46
2023-04-26T08:01:03.716Z,12.28
2023-04-26T08:03:52.724Z,12.40
2023-04-26T08:06:45.005Z,12.72
2023-04-26T08:09:34.883Z,12.77
2023-04-26T08:12:23.412Z,12.97
2023-04-26T08:15:13.379Z,13.07
2023-04-26T08:18:01.938Z,13.25
2023-04-26T08:20:50.528Z,13.32
2023-04-26T08:23:39.317Z,12.78
2023-04-26T08:26:29.249Z,12.81
2023-04-26T08:29:18.673Z,12.54
2023-04-26T08:32:07.212Z,13.12
2023-04-26T08:34:55.794Z,13.40
2023-04-26T08:37:44.286Z,13.20
2023-04-26T08:40:33.444Z,13.14
2023-04-26T08:43:23.276Z,13.18
2023-04-26T08:46:16.332Z,13.19
2023-04-26T08:49:13.035Z,13.53
2023-04-26T08:52:02.077Z,13.85
2023-04-26T08:54:51.446Z,13.59
2023-04-26T08:57:41.454Z,13.13
2023-04-26T09:00:31.783Z,13.25
2023-04-26T09:03:21.059Z,13.39
2023-04-26T09:06:09.902Z,13.39
2023-04-26T09:08:59.092Z,13.34
2023-04-26T09:11:55.617Z,13.41
2023-04-26T09:14:44.137Z,13.33
2023-04-26T09:17:36.614Z,13.31
2023-04-26T09:20:28.104Z,13.19
2023-04-26T09:23:17.083Z,13.56
2023-04-26T09:26:22.338Z,13.74
2023-04-26T09:29:15.651Z,14.00
2023-04-26T09:32:04.478Z,14.13
2023-04-26T09:34:54.349Z,13.54
2023-04-26T09:37:59.365Z,13.57
2023-04-26T09:40:51.793Z,13.52
2023-04-26T09:43:40.521Z,13.79
2023-04-26T09:46:29.053Z,13.76
2023-04-26T09:49:17.618Z,13.73
2023-04-26T09:52:08.178Z,13.59
2023-04-26T09:54:56.712Z,12.92
2023-04-26T09:57:45.518Z,13.42
2023-04-26T10:00:34.372Z,13.05
2023-04-26T10:03:24.052Z,13.63
2023-04-26T10:06:16.386Z,13.38
2023-04-26T10:09:09.112Z,13.74
2023-04-26T10:12:00.269Z,14.03
2023-04-26T10:14:49.652Z,13.71
2023-04-26T10:17:38.597Z,13.47
2023-04-26T10:20:29.690Z,13.52
2023-04-26T10:23:21.251Z,13.63
2023-04-26T10:26:47.079Z,14.09
2023-04-26T10:30:09.184Z,14.48
2023-04-26T10:33:22.144Z,14.62
2023-04-26T10:36:12.548Z,13.95
2023-04-26T10:39:21.778Z,14.52
2023-04-26T10:42:25.132Z,14.67
2023-04-26T10:45:28.193Z,14.61
2023-04-26T10:48:18.560Z,14.55
2023-04-26T10:51:12.298Z,14.04
2023-04-26T10:54:02.080Z,14.23
2023-04-26T10:56:52.902Z,13.90
2023-04-26T11:00:21.913Z,14.32
2023-04-26T11:03:12.820Z,14.51
2023-04-26T11:06:01.778Z,14.38
2023-04-26T11:08:50.556Z,14.62
2023-04-26T11:11:53.323Z,14.39
2023-04-26T11:14:43.848Z,14.56
2023-04-26T11:17:38.228Z,14.28
2023-04-26T11:20:31.386Z,14.64
2023-04-26T11:23:20.674Z,14.20
2023-04-26T11:26:09.796Z,14.34
2023-04-26T11:28:58.288Z,14.33
2023-04-26T11:31:54.047Z,14.20
2023-04-26T11:34:43.983Z,14.37
2023-04-26T11:37:32.584Z,14.48
2023-04-26T11:40:21.721Z,14.74
2023-04-26T11:43:10.814Z,14.79
2023-04-26T11:46:00.093Z,14.87
2023-04-26T11:48:50.040Z,14.96
2023-04-26T11:51:38.611Z,15.37
2023-04-26T11:54:31.487Z,15.30
2023-04-26T11:57:20.677Z,15.52
2023-04-26T12:00:12.459Z,15.11
2023-04-26T12:03:06.291Z,14.93
2023-04-26T12:05:57.035Z,14.82
2023-04-26T12:08:51.297Z,14.68
2023-04-26T12:11:40.190Z,14.64
2023-04-26T12:14:32.580Z,14.68
2023-04-26T12:17:21.471Z,14.67
2023-04-26T12:20:11.233Z,14.83
2023-04-26T12:23:02.829Z,15.03
2023-04-26T12:25:55.848Z,15.20
2023-04-26T12:28:44.824Z,15.28
2023-04-26T12:31:33.325Z,15.40
2023-04-26T12:34:21.885Z,14.86
2023-04-26T12:37:10.652Z,15.11
2023-04-26T12:40:00.958Z,14.99
2023-04-26T12:42:50.624Z,14.50
2023-04-26T12:45:39.161Z,14.47
2023-04-26T12:48:28.142Z,14.59
2023-04-26T12:51:16.576Z,14.64
2023-04-26T12:54:05.203Z,15.01
2023-04-26T12:56:55.037Z,15.30
2023-04-26T12:59:43.495Z,15.12
2023-04-26T13:02:36.904Z,15.02
2023-04-26T13:05:25.686Z,14.95
2023-04-26T13:08:14.545Z,14.89
2023-04-26T13:11:03.452Z,14.63
2023-04-26T13:13:53.261Z,14.56
2023-04-26T13:16:43.859Z,14.73
2023-04-26T13:19:32.438Z,14.70
2023-04-26T13:22:21.438Z,14.74
2023-04-26T13:25:10.920Z,15.17
2023-04-26T13:27:59.431Z,15.35
2023-04-26T13:30:49.275Z,15.31
2023-04-26T13:33:37.776Z,15.32
2023-04-26T13:36:26.302Z,15.43
2023-04-26T13:39:14.780Z,15.09
2023-04-26T13:42:03.813Z,15.78
2023-04-26T13:44:52.416Z,16.10
2023-04-26T13:47:42.365Z,16.19
2023-04-26T13:50:30.836Z,16.12
2023-04-26T13:53:19.761Z,16.10
2023-04-26T13:56:09.412Z,16.29
2023-04-26T13:58:57.976Z,15.59
2023-04-26T14:01:46.782Z,16.03
2023-04-26T14:04:36.936Z,16.14
2023-04-26T14:07:26.220Z,16.23
2023-04-26T14:10:15.302Z,16.41
2023-04-26T14:13:03.791Z,16.45
2023-04-26T14:15:52.443Z,16.43
2023-04-26T14:18:44.992Z,16.54
2023-04-26T14:21:34.904Z,16.52
2023-04-26T14:24:23.498Z,16.32
2023-04-26T14:27:12.301Z,16.01
2023-04-26T14:30:00.959Z,16.28
2023-04-26T14:32:49.508Z,16.28
2023-04-26T14:35:38.045Z,16.27
2023-04-26T14:38:28.100Z,16.04
2023-04-26T14:41:17.403Z,15.52
2023-04-26T14:44:06.251Z,14.72
2023-04-26T14:46:54.818Z,15.52
2023-04-26T14:49:43.250Z,15.59
2023-04-26T14:52:31.705Z,15.97
2023-04-26T14:55:22.868Z,16.12
2023-04-26T14:58:11.486Z,16.10
2023-04-26T15:01:00.553Z,15.73
2023-04-26T15:03:49.175Z,15.85
2023-04-26T15:06:37.834Z,15.95
2023-04-26T15:09:27.100Z,15.97
2023-04-26T15:12:18.284Z,16.08
2023-04-26T15:15:08.123Z,16.08
2023-04-26T15:17:56.973Z,15.91
2023-04-26T15:20:45.578Z,15.89
2023-04-26T15:23:34.067Z,15.89
2023-04-26T15:26:23.036Z,15.79
2023-04-26T15:29:13.078Z,15.73
2023-04-26T15:32:01.827Z,15.49
2023-04-26T15:34:50.377Z,15.49
2023-04-26T15:37:38.928Z,15.50
2023-04-26T15:40:27.658Z,15.50
2023-04-26T15:43:16.283Z,15.50
2023-04-26T15:46:06.256Z,15.51
2023-04-26T15:48:54.746Z,15.43
2023-04-26T15:51:43.665Z,15.38
2023-04-26T15:54:32.284Z,15.36
2023-04-26T15:57:20.770Z,15.11
2023-04-26T16:00:12.701Z,15.14
2023-04-26T16:03:03.035Z,15.03
2023-04-26T16:05:51.598Z,15.10
2023-04-26T16:08:40.894Z,15.18
2023-04-26T16:11:29.596Z,15.07
2023-04-26T16:14:18.077Z,14.93
2023-04-26T16:17:06.664Z,14.85
2023-04-26T16:19:56.509Z,14.88
2023-04-26T16:22:45.405Z,14.90
2023-04-26T16:25:33.959Z,14.90
2023-04-26T16:28:22.435Z,14.76
2023-04-26T16:31:11.123Z,14.47
2023-04-26T16:33:59.772Z,14.65
2023-04-26T16:36:49.643Z,14.44
2023-04-26T16:39:38.156Z,14.58
2023-04-26T16:42:26.942Z,14.58
2023-04-26T16:45:16.723Z,14.58
2023-04-26T16:48:05.555Z,14.56
2023-04-26T16:50:54.114Z,14.56
2023-04-26T16:53:43.945Z,14.49
2023-04-26T16:56:33.155Z,14.52
2023-04-26T16:59:21.776Z,14.35
2023-04-26T17:02:10.260Z,14.61
2023-04-26T17:04:58.917Z,14.54
2023-04-26T17:07:47.421Z,14.38
2023-04-26T17:10:37.972Z,14.52
2023-04-26T17:13:29.211Z,14.47
2023-04-26T17:16:17.909Z,14.37
2023-04-26T17:19:06.803Z,14.33
2023-04-26T17:21:55.335Z,14.37
2023-04-26T17:24:43.820Z,14.37
2023-04-26T17:27:33.649Z,14.27
2023-04-26T17:30:22.781Z,14.27
2023-04-26T17:33:11.333Z,14.15
2023-04-26T17:35:59.915Z,14.05
2023-04-26T17:38:49.068Z,14.03
2023-04-26T17:41:38.267Z,13.98
2023-04-26T17:44:28.133Z,14.01
2023-04-26T17:47:16.633Z,14.00
2023-04-26T17:50:05.812Z,13.87
2023-04-26T17:52:54.359Z,13.88
2023-04-26T17:55:42.995Z,13.96
2023-04-26T17:58:31.426Z,13.83
2023-04-26T18:01:21.524Z,13.75
2023-04-26T18:04:10.281Z,13.61
2023-04-26T18:06:58.892Z,13.45
2023-04-26T18:09:47.603Z,13.39
2023-04-26T18:12:36.685Z,13.12
2023-04-26T18:15:25.286Z,13.28
2023-04-26T18:18:15.242Z,13.19
2023-04-26T18:21:03.775Z,13.10
2023-04-26T18:23:52.277Z,13.04
2023-04-26T18:26:41.433Z,13.00
2023-04-26T18:29:30.344Z,12.61
2023-04-26T18:32:18.897Z,12.93
2023-04-26T18:35:09.673Z,12.82
2023-04-26T18:37:58.160Z,12.71
2023-04-26T18:40:46.989Z,12.59
2023-04-26T18:43:35.516Z,12.56
2023-04-26T18:46:23.982Z,12.48
2023-04-26T18:49:12.414Z,12.38
2023-04-26T18:52:02.312Z,12.26
2023-04-26T18:54:51.316Z,11.93
2023-04-26T18:57:40.120Z,12.11
2023-04-26T19:00:28.606Z,12.01
2023-04-26T19:03:17.422Z,11.93
2023-04-26T19:06:08.957Z,11.88
2023-04-26T19:08:58.813Z,11.80
2023-04-26T19:11:50.165Z,11.71
2023-04-26T19:14:38.683Z,11.68
2023-04-26T19:17:29.303Z,11.61
2023-04-26T19:20:17.940Z,11.57
2023-04-26T19:23:06.447Z,11.52
2023-04-26T19:26:02.681Z,11.47
2023-04-26T19:28:51.244Z,11.41
2023-04-26T19:31:39.804Z,11.34
2023-04-26T19:34:28.440Z,11.19
2023-04-26T19:37:17.019Z,11.23
2023-04-26T19:40:07.406Z,11.19
2023-04-26T19:42:57.358Z,11.17
2023-04-26T19:45:46.276Z,11.03
2023-04-26T19:48:34.837Z,10.99
2023-04-26T19:51:23.422Z,10.91
2023-04-26T19:54:11.941Z,10.84
2023-04-26T19:57:01.464Z,10.73
2023-04-26T19:59:51.325Z,10.66
2023-04-26T20:02:39.924Z,10.69
2023-04-26T20:05:28.573Z,10.63
2023-04-26T20:08:17.146Z,10.61
2023-04-26T20:11:05.789Z,10.56
2023-04-26T20:13:54.324Z,10.51
2023-04-26T20:16:44.277Z,10.49
2023-04-26T20:19:32.826Z,10.26
2023-04-26T20:22:21.405Z,10.49
2023-04-26T20:25:10.418Z,10.43
2023-04-26T20:27:58.944Z,10.45
2023-04-26T20:30:47.600Z,10.36
2023-04-26T20:33:37.884Z,10.26
2023-04-26T20:36:27.337Z,10.19
2023-04-26T20:39:16.619Z,10.12
2023-04-26T20:42:05.842Z,9.99
2023-04-26T20:44:54.600Z,9.99
2023-04-26T20:47:43.342Z,9.92
2023-04-26T20:50:35.342Z,9.89
2023-04-26T20:53:24.990Z,9.82
2023-04-26T20:56:13.525Z,9.82
2023-04-26T20:59:01.998Z,9.81
2023-04-26T21:01:50.570Z,9.79
2023-04-26T21:04:41.784Z,9.81
2023-04-26T21:07:32.249Z,9.88
2023-04-26T21:10:21.849Z,9.89
2023-04-26T21:13:10.354Z,9.89
2023-04-26T21:16:04.654Z,9.92
2023-04-26T21:18:53.541Z,9.95
2023-04-26T21:21:41.967Z,9.92
2023-04-26T21:24:31.783Z,9.93
2023-04-26T21:27:20.387Z,9.88
2023-04-26T21:30:10.016Z,9.89
2023-04-26T21:32:58.551Z,9.95
2023-04-26T21:35:47.078Z,9.94
2023-04-26T21:38:35.687Z,9.89
2023-04-26T21:41:25.881Z,9.84
2023-04-26T21:44:14.384Z,9.88
2023-04-26T21:47:02.918Z,9.70
2023-04-26T21:49:52.159Z,9.85
2023-04-26T21:52:40.689Z,9.89
2023-04-26T21:55:29.168Z,10.02
2023-04-26T21:58:18.977Z,10.11
2023-04-26T22:01:09.165Z,10.07
2023-04-26T22:03:57.836Z,10.12
2023-04-26T22:06:46.335Z,10.01
2023-04-26T22:09:34.850Z,9.98
2023-04-26T22:12:23.344Z,9.94
2023-04-26T22:15:13.461Z,10.03
2023-04-26T22:18:01.961Z,10.02
2023-04-26T22:20:50.510Z,9.94
2023-04-26T22:23:39.100Z,9.92
2023-04-26T22:26:27.625Z,10.00
2023-04-26T22:29:16.270Z,9.92
2023-04-26T22:32:06.528Z,9.88
2023-04-26T22:34:55.075Z,9.93
2023-04-26T22:37:43.502Z,9.85
2023-04-26T22:40:32.258Z,9.90
2023-04-26T22:43:20.829Z,9.86
2023-04-26T22:46:09.360Z,9.76
2023-04-26T22:48:59.545Z,9.51
2023-04-26T22:52:01.137Z,9.70
2023-04-26T22:54:50.869Z,9.65
2023-04-26T22:57:39.582Z,9.55
2023-04-26T23:00:28.030Z,9.56
2023-04-26T23:03:16.571Z,9.63
2023-04-26T23:06:07.058Z,9.48
2023-04-26T23:08:55.509Z,9.28
2023-04-26T23:11:43.942Z,9.32
2023-04-26T23:14:33.697Z,9.33
2023-04-26T23:17:22.464Z,9.29
2023-04-26T23:20:14.821Z,9.39
2023-04-26T23:23:04.659Z,9.47
2023-04-26T23:25:53.155Z,9.47
2023-04-26T23:28:41.647Z,9.50
2023-04-26T23:31:30.113Z,9.51
2023-04-26T23:34:18.642Z,9.39
2023-04-26T23:37:08.225Z,9.14
2023-04-26T23:39:58.238Z,9.32
2023-04-26T23:42:46.747Z,9.35
2023-04-26T23:45:35.253Z,9.43
2023-04-26T23:48:23.766Z,9.48
2023-04-26T23:51:12.300Z,9.38
2023-04-26T23:54:00.728Z,9.46
2023-04-26T23:56:50.656Z,9.46
2023-04-26T23:59:39.085Z,9.47
